Terminal Aerodrome Forecast
Issued by NWS Quad Cities IA IL

Home | Current Version | Previous Version | Text Only | Print | Product List | Glossary On
Versions: 1 2 3 4 5 6 7 8 9 10 11 12 13 14 15 16 17 18 19 20 21 22
000
FTUS43 KDVN 081123
TAFDBQ
TAF
KDBQ 081123Z 0812/0912 22008KT P6SM SCT250
     FM090100 23011KT P6SM BKN035 OVC050
      TEMPO 0903/0907 4SM -SN BR OVC020
     FM090700 31015G25KT P6SM SCT040=

USA.gov is the U.S. government's official web portal to all federal, state and local government web resources and services.